Time;durP1;ratioP1;P1;durP2;ratioP2;P2;SDS_P1;SDS_P2;PMS_P1;PMS_P2;Temp;Humidity;BMP_temperature;BMP_pressure;BME280_temperature;BME280_humidity;BME280_pressure;Samples;Min_cycle;Max_cycle;Signal;HPM_P1;HPM_P2
2021/01/16 00:00:49;;;;;;;18.17;7.33;;;;;;;1.67;100.00;99135.25;5029809;28;20230;-72
2021/01/16 00:03:15;;;;;;;14.97;6.93;;;;;;;1.54;100.00;99143.25;5024870;28;20667;-71
2021/01/16 00:05:44;;;;;;;15.97;7.33;;;;;;;1.66;100.00;99134.44;5027748;28;20233;-72
2021/01/16 00:08:12;;;;;;;13.60;6.73;;;;;;;1.68;100.00;99134.31;5030907;28;20663;-71
2021/01/16 00:10:41;;;;;;;15.37;7.77;;;;;;;1.65;100.00;99140.66;5033008;28;20209;-69
2021/01/16 00:13:11;;;;;;;19.23;8.30;;;;;;;1.58;100.00;99143.88;5030600;28;20236;-71
2021/01/16 00:15:39;;;;;;;16.73;7.90;;;;;;;1.60;100.00;99134.91;5027516;28;20218;-71
2021/01/16 00:18:07;;;;;;;13.17;7.30;;;;;;;1.55;100.00;99131.81;5028359;28;20210;-71
2021/01/16 00:20:34;;;;;;;19.33;8.37;;;;;;;1.72;100.00;99130.47;5029872;28;20218;-72
2021/01/16 00:23:02;;;;;;;12.57;6.73;;;;;;;1.67;100.00;99127.38;5028885;28;20214;-70
2021/01/16 00:25:29;;;;;;;15.50;7.77;;;;;;;1.70;100.00;99129.78;5029122;28;20599;-72
2021/01/16 00:27:56;;;;;;;14.73;7.23;;;;;;;1.67;100.00;99130.84;5030321;28;20206;-72
2021/01/16 00:30:25;;;;;;;16.30;7.47;;;;;;;1.68;100.00;99131.69;5031286;28;20201;-72
2021/01/16 00:32:52;;;;;;;14.33;8.03;;;;;;;1.67;100.00;99128.22;5024285;28;20284;-72
2021/01/16 00:35:19;;;;;;;16.27;7.40;;;;;;;1.55;100.00;99131.81;5027066;28;20214;-72
2021/01/16 00:37:48;;;;;;;14.90;8.00;;;;;;;1.40;100.00;99127.72;5032137;28;20202;-70
2021/01/16 00:40:18;;;;;;;14.47;6.97;;;;;;;1.65;100.00;99132.78;5034624;28;20229;-72
2021/01/16 00:42:46;;;;;;;15.33;7.60;;;;;;;1.69;100.00;99125.47;5029309;28;20264;-72
2021/01/16 00:45:15;;;;;;;16.40;7.77;;;;;;;1.67;100.00;99125.59;5032083;28;20706;-72
2021/01/16 00:47:42;;;;;;;15.90;7.67;;;;;;;1.64;100.00;99125.00;5031401;28;21013;-72
2021/01/16 00:50:11;;;;;;;19.73;8.20;;;;;;;1.58;100.00;99123.66;5034921;28;20198;-72
2021/01/16 00:52:38;;;;;;;16.97;8.23;;;;;;;1.62;100.00;99129.50;5032848;28;20567;-72
2021/01/16 00:55:07;;;;;;;17.53;7.87;;;;;;;1.50;100.00;99123.41;5031573;28;20226;-73
2021/01/16 00:57:34;;;;;;;19.33;9.17;;;;;;;1.45;100.00;99132.59;5033462;28;20202;-71
2021/01/16 01:00:01;;;;;;;15.77;8.00;;;;;;;1.53;100.00;99125.78;5032477;28;20600;-73
2021/01/16 01:02:28;;;;;;;16.43;8.50;;;;;;;1.45;100.00;99125.56;5028942;28;20206;-71
2021/01/16 01:04:55;;;;;;;17.70;8.83;;;;;;;1.43;100.00;99137.16;5032093;28;20276;-72
2021/01/16 01:07:22;;;;;;;15.10;7.10;;;;;;;1.51;100.00;99132.97;5029250;28;20202;-73
2021/01/16 01:09:48;;;;;;;15.17;7.50;;;;;;;1.68;100.00;99135.16;5030871;28;20721;-71
2021/01/16 01:12:15;;;;;;;15.00;8.20;;;;;;;1.43;100.00;99139.78;5033413;28;20577;-71
2021/01/16 01:14:43;;;;;;;19.43;8.70;;;;;;;1.33;100.00;99139.63;5026168;28;20230;-69
2021/01/16 01:17:16;;;;;;;17.80;8.00;;;;;;;1.57;100.00;99136.91;5034870;28;20299;-71
2021/01/16 01:19:43;;;;;;;20.17;9.00;;;;;;;1.64;100.00;99135.50;5034301;28;20229;-71
2021/01/16 01:22:10;;;;;;;17.27;8.10;;;;;;;1.69;100.00;99136.81;5033668;28;20198;-72
2021/01/16 01:24:38;;;;;;;17.70;8.40;;;;;;;1.64;100.00;99136.31;5029784;28;20203;-71
2021/01/16 01:27:05;;;;;;;16.50;8.67;;;;;;;1.50;100.00;99133.09;5033588;28;20202;-71
2021/01/16 01:29:32;;;;;;;18.37;8.53;;;;;;;1.66;100.00;99129.19;5033535;28;20590;-71
2021/01/16 01:31:59;;;;;;;20.70;7.83;;;;;;;1.66;100.00;99131.81;5033629;28;20725;-71
2021/01/16 01:34:26;;;;;;;19.10;9.13;;;;;;;1.52;100.00;99132.03;5029708;28;20205;-72
2021/01/16 01:36:53;;;;;;;18.40;9.13;;;;;;;1.45;100.00;99136.09;5028889;28;20214;-70
2021/01/16 01:39:20;;;;;;;15.77;7.90;;;;;;;1.73;100.00;99135.63;5026654;28;20226;-72
2021/01/16 01:41:47;;;;;;;17.03;8.60;;;;;;;1.77;100.00;99131.81;5030397;28;20218;-71
2021/01/16 01:44:13;;;;;;;15.00;7.77;;;;;;;1.55;100.00;99131.81;5024949;28;20202;-71
2021/01/16 01:46:40;;;;;;;16.80;8.13;;;;;;;1.64;100.00;99133.69;5031676;28;20275;-72
2021/01/16 01:49:08;;;;;;;16.20;8.60;;;;;;;1.73;100.00;99130.38;5029654;28;20732;-71
2021/01/16 01:51:36;;;;;;;19.83;8.00;;;;;;;1.80;100.00;99130.72;5032045;28;20213;-70
2021/01/16 01:54:03;;;;;;;18.47;9.00;;;;;;;1.64;100.00;99135.50;5031837;28;20213;-71
2021/01/16 01:56:30;;;;;;;18.03;8.23;;;;;;;1.74;100.00;99133.84;5028715;28;20747;-70
2021/01/16 01:58:59;;;;;;;15.80;7.63;;;;;;;1.82;100.00;99136.69;5032829;28;20213;-71
2021/01/16 02:01:29;;;;;;;16.97;8.23;;;;;;;1.88;100.00;99133.63;5031975;28;20229;-74
2021/01/16 02:03:56;;;;;;;15.37;8.63;;;;;;;1.86;100.00;99136.38;5032411;28;20837;-72
2021/01/16 02:06:24;;;;;;;16.63;8.03;;;;;;;1.70;100.00;99137.66;5027233;28;20234;-71
2021/01/16 02:08:51;;;;;;;18.47;7.93;;;;;;;1.62;100.00;99135.63;5028740;28;20202;-71
2021/01/16 02:11:18;;;;;;;18.50;8.97;;;;;;;1.81;100.00;99130.63;5033418;28;20208;-71
2021/01/16 02:13:44;;;;;;;19.63;8.90;;;;;;;1.83;100.00;99131.31;5028402;28;20207;-71
2021/01/16 02:16:25;;;;;;;15.87;8.60;;;;;;;1.78;100.00;99127.41;5028895;28;20590;-72
2021/01/16 02:18:55;;;;;;;16.50;8.03;;;;;;;1.86;100.00;99125.00;5027049;28;20205;-71
2021/01/16 02:21:23;;;;;;;20.60;8.87;;;;;;;1.84;100.00;99122.47;5028331;28;20213;-71
2021/01/16 02:23:52;;;;;;;17.17;7.83;;;;;;;1.89;100.00;99124.75;5031306;28;20846;-72
2021/01/16 02:26:32;;;;;;;19.57;7.37;;;;;;;1.82;100.00;99116.50;5027962;28;20229;-71
2021/01/16 02:29:02;;;;;;;21.23;7.90;;;;;;;1.92;100.00;99117.47;5028818;28;20718;-72
2021/01/16 02:31:33;;;;;;;21.07;9.03;;;;;;;1.69;100.00;99123.66;5025844;28;20686;-71
2021/01/16 02:34:01;;;;;;;17.90;8.37;;;;;;;1.83;100.00;99114.72;5029386;28;20206;-71
2021/01/16 02:36:39;;;;;;;17.40;8.67;;;;;;;1.84;100.00;99111.13;5030443;28;20238;-71
2021/01/16 02:39:11;;;;;;;16.10;7.73;;;;;;;1.88;100.00;99110.75;5028864;28;20582;-71
2021/01/16 02:41:48;;;;;;;17.47;8.20;;;;;;;1.84;100.00;99114.56;5031173;28;20210;-71
2021/01/16 02:44:20;;;;;;;21.67;8.30;;;;;;;1.53;100.00;99119.72;5023914;28;20212;-71
2021/01/16 02:46:49;;;;;;;18.77;8.90;;;;;;;1.70;100.00;99117.47;5030919;28;20809;-71
2021/01/16 02:49:37;;;;;;;19.00;8.73;;;;;;;1.71;100.00;99116.50;5031177;28;20582;-71
2021/01/16 02:52:06;;;;;;;17.33;7.97;;;;;;;1.79;100.00;99115.91;5023803;28;20197;-71
2021/01/16 02:54:36;;;;;;;20.00;9.40;;;;;;;1.80;100.00;99113.16;5033678;28;20210;-71
2021/01/16 02:57:04;;;;;;;15.97;7.73;;;;;;;1.84;100.00;99114.56;5032202;28;20264;-72
2021/01/16 02:59:36;;;;;;;19.67;8.43;;;;;;;1.82;100.00;99118.28;5032145;28;20261;-71
2021/01/16 03:02:05;;;;;;;15.20;8.00;;;;;;;1.67;100.00;99117.69;5031493;28;20217;-71
2021/01/16 03:04:32;;;;;;;18.17;8.60;;;;;;;1.58;100.00;99114.94;5023047;28;20210;-70
2021/01/16 03:07:00;;;;;;;17.47;8.27;;;;;;;1.59;100.00;99114.81;5031365;28;20198;-71
2021/01/16 03:09:27;;;;;;;20.70;8.77;;;;;;;1.85;100.00;99116.28;5028769;28;20556;-72
2021/01/16 03:11:54;;;;;;;19.80;8.77;;;;;;;1.87;100.00;99110.88;5031458;28;20214;-71
2021/01/16 03:14:21;;;;;;;17.63;8.30;;;;;;;1.85;100.00;99118.06;5030666;28;20244;-73
2021/01/16 03:17:13;;;;;;;19.27;7.93;;;;;;;1.78;100.00;99111.59;5028620;28;20617;-73
2021/01/16 03:19:43;;;;;;;20.20;8.57;;;;;;;1.78;100.00;99115.06;5014883;28;20230;-72
2021/01/16 03:22:21;;;;;;;17.50;8.27;;;;;;;1.65;100.00;99114.34;5029861;28;20275;-72
2021/01/16 03:24:49;;;;;;;18.10;9.00;;;;;;;1.61;100.00;99118.16;5029742;28;20249;-72
2021/01/16 03:27:16;;;;;;;17.43;8.33;;;;;;;1.68;100.00;99115.91;5031383;28;20260;-69
2021/01/16 03:29:43;;;;;;;19.00;9.60;;;;;;;1.63;100.00;99113.63;5031054;28;20201;-72
2021/01/16 03:32:11;;;;;;;15.63;8.27;;;;;;;1.72;100.00;99115.53;5028564;28;20556;-71
2021/01/16 03:34:40;;;;;;;19.57;9.47;;;;;;;1.70;100.00;99109.56;5030691;28;20699;-73
2021/01/16 03:37:08;;;;;;;18.07;8.80;;;;;;;1.68;100.00;99105.38;5023811;28;20260;-72
2021/01/16 03:39:35;;;;;;;21.47;9.50;;;;;;;1.70;100.00;99113.97;5030903;28;20230;-71
2021/01/16 03:42:02;;;;;;;16.93;8.63;;;;;;;1.75;100.00;99120.56;5030403;28;20206;-72
2021/01/16 03:44:29;;;;;;;19.90;9.70;;;;;;;1.77;100.00;99115.16;5024943;28;20209;-71
2021/01/16 03:46:55;;;;;;;18.87;8.63;;;;;;;1.77;100.00;99108.13;5028990;28;20292;-73
2021/01/16 03:49:22;;;;;;;18.77;9.03;;;;;;;1.64;100.00;99110.03;5025440;28;20655;-72
2021/01/16 03:51:50;;;;;;;21.73;9.03;;;;;;;1.62;100.00;99106.69;5029222;28;20210;-71
2021/01/16 03:54:17;;;;;;;20.07;9.63;;;;;;;1.64;100.00;99099.50;5031033;28;20202;-71
2021/01/16 03:56:44;;;;;;;21.90;9.67;;;;;;;1.67;100.00;99106.31;5030349;28;20233;-71
2021/01/16 03:59:10;;;;;;;18.90;8.97;;;;;;;1.50;100.00;99117.31;5026533;28;20240;-71
2021/01/16 04:01:38;;;;;;;21.17;10.13;;;;;;;1.58;100.00;99109.69;5025421;28;20202;-71
2021/01/16 04:04:05;;;;;;;24.10;9.07;;;;;;;1.54;100.00;99116.94;5028390;28;20202;-71
2021/01/16 04:06:31;;;;;;;19.53;9.83;;;;;;;1.55;100.00;99110.75;5030616;28;20222;-70
2021/01/16 04:08:59;;;;;;;21.63;9.27;;;;;;;1.54;100.00;99109.06;5027070;28;20204;-71
2021/01/16 04:11:26;;;;;;;20.70;9.40;;;;;;;1.59;100.00;99108.72;5026388;28;20217;-71
2021/01/16 04:13:53;;;;;;;23.53;10.70;;;;;;;1.66;100.00;99121.28;5022313;28;20217;-72
2021/01/16 04:16:19;;;;;;;19.17;9.70;;;;;;;1.68;100.00;99123.81;5029825;28;20226;-71
2021/01/16 04:18:46;;;;;;;20.90;9.40;;;;;;;1.71;100.00;99121.75;5029942;28;20232;-71
2021/01/16 04:21:13;;;;;;;22.77;10.13;;;;;;;1.69;100.00;99128.91;5028792;28;20234;-71
2021/01/16 04:23:40;;;;;;;18.77;9.77;;;;;;;1.72;100.00;99125.22;5027185;28;20236;-69
2021/01/16 04:26:07;;;;;;;24.87;10.43;;;;;;;1.72;100.00;99122.59;5022989;28;20256;-72
2021/01/16 04:28:34;;;;;;;21.60;9.23;;;;;;;1.74;100.00;99125.94;5030581;28;20202;-71
2021/01/16 04:31:01;;;;;;;21.67;10.03;;;;;;;1.65;100.00;99124.88;5029913;28;20194;-70
2021/01/16 04:33:28;;;;;;;21.07;9.43;;;;;;;1.64;100.00;99125.81;5026385;28;20341;-70
2021/01/16 04:35:54;;;;;;;18.10;8.67;;;;;;;1.61;100.00;99123.44;5028795;28;20234;-71
2021/01/16 04:38:21;;;;;;;24.33;10.13;;;;;;;1.70;100.00;99124.50;5030695;28;20239;-71
2021/01/16 04:40:48;;;;;;;20.63;9.80;;;;;;;1.66;100.00;99118.66;5030322;28;20228;-72
2021/01/16 04:43:16;;;;;;;23.77;10.50;;;;;;;1.68;100.00;99124.63;5026188;28;20210;-71
2021/01/16 04:45:43;;;;;;;22.73;9.60;;;;;;;1.67;100.00;99120.31;5028502;28;20237;-71
2021/01/16 04:48:11;;;;;;;22.47;10.17;;;;;;;1.62;100.00;99111.94;5029923;28;20198;-71
2021/01/16 04:50:40;;;;;;;20.97;9.80;;;;;;;1.66;100.00;99115.16;5029602;28;20198;-72
2021/01/16 04:53:09;;;;;;;24.67;9.73;;;;;;;1.66;100.00;99115.16;5024107;28;20213;-71
2021/01/16 04:55:37;;;;;;;22.73;9.33;;;;;;;1.65;100.00;99103.84;5026354;28;20223;-71
2021/01/16 04:58:07;;;;;;;20.70;9.03;;;;;;;1.49;100.00;99105.94;5029523;28;20228;-70
2021/01/16 05:00:36;;;;;;;20.17;9.20;;;;;;;1.60;100.00;99110.38;5029822;28;20584;-71
2021/01/16 05:03:05;;;;;;;20.40;9.10;;;;;;;1.59;100.00;99112.16;5025411;28;20613;-70
2021/01/16 05:05:32;;;;;;;19.20;9.73;;;;;;;1.58;100.00;99113.13;5020541;28;20699;-72
2021/01/16 05:08:01;;;;;;;21.87;9.40;;;;;;;1.63;100.00;99110.97;5028850;28;20206;-70
2021/01/16 05:10:36;;;;;;;21.50;9.47;;;;;;;1.64;100.00;99109.19;5034697;28;20202;-70
2021/01/16 05:13:11;;;;;;;25.20;9.57;;;;;;;1.54;100.00;99098.53;5030055;28;20197;-69
2021/01/16 05:15:40;;;;;;;20.27;9.53;;;;;;;1.46;100.00;99102.72;5023767;28;20280;-70
2021/01/16 05:18:10;;;;;;;19.70;9.43;;;;;;;1.56;100.00;99101.06;5027993;28;20642;-70
2021/01/16 05:20:37;;;;;;;22.60;9.07;;;;;;;1.60;100.00;99100.72;5030483;28;20218;-70
2021/01/16 05:23:15;;;;;;;17.03;8.50;;;;;;;1.60;100.00;99094.59;5033690;28;20198;-70
2021/01/16 05:25:46;;;;;;;19.37;9.17;;;;;;;1.56;100.00;99104.53;5033205;28;20234;-70
2021/01/16 05:28:15;;;;;;;20.87;9.53;;;;;;;1.45;100.00;99103.69;5031566;28;20219;-70
2021/01/16 05:30:51;;;;;;;22.20;10.03;;;;;;;1.59;100.00;99106.91;5033848;28;20673;-70
2021/01/16 05:33:19;;;;;;;24.40;9.17;;;;;;;1.66;100.00;99102.88;5034049;28;20284;-70
2021/01/16 05:35:46;;;;;;;22.43;9.63;;;;;;;1.59;100.00;99106.09;5033212;28;20229;-70
2021/01/16 05:38:13;;;;;;;22.80;9.77;;;;;;;1.59;100.00;99103.47;5025685;28;20218;-71
2021/01/16 05:40:40;;;;;;;19.23;9.83;;;;;;;1.55;100.00;99110.75;5033631;28;20229;-70
2021/01/16 05:43:08;;;;;;;21.20;8.97;;;;;;;1.63;100.00;99110.97;5033229;28;20206;-70
2021/01/16 05:45:36;;;;;;;20.87;9.93;;;;;;;1.56;100.00;99109.78;5026779;28;20223;-70
2021/01/16 05:48:04;;;;;;;19.77;9.23;;;;;;;1.60;100.00;99107.75;5027979;28;20202;-70
2021/01/16 05:50:31;;;;;;;18.87;9.10;;;;;;;1.65;100.00;99110.88;5029942;28;20194;-70
2021/01/16 05:52:58;;;;;;;20.00;9.80;;;;;;;1.59;100.00;99120.06;5032774;28;20206;-70
2021/01/16 05:55:25;;;;;;;24.07;11.50;;;;;;;1.52;100.00;99110.13;5028842;28;20222;-70
2021/01/16 05:58:03;;;;;;;18.90;9.53;;;;;;;1.65;100.00;99113.50;5031536;28;20209;-70
2021/01/16 06:00:35;;;;;;;22.07;10.17;;;;;;;1.60;100.00;99103.34;5031405;28;20598;-69
2021/01/16 06:03:03;;;;;;;19.00;9.20;;;;;;;1.64;100.00;99110.03;5029611;28;20210;-70
2021/01/16 06:05:30;;;;;;;22.00;9.93;;;;;;;1.64;100.00;99098.69;5033228;28;20702;-70
2021/01/16 06:07:57;;;;;;;20.53;8.77;;;;;;;1.66;100.00;99099.38;5033277;28;20254;-71
2021/01/16 06:10:24;;;;;;;24.63;10.47;;;;;;;1.63;100.00;99102.28;5028986;28;20209;-70
2021/01/16 06:12:52;;;;;;;22.70;10.30;;;;;;;1.56;100.00;99101.91;5030846;28;20750;-70
2021/01/16 06:15:20;;;;;;;20.50;9.13;;;;;;;1.42;100.00;99099.50;5028118;28;20231;-70
2021/01/16 06:17:48;;;;;;;21.10;9.13;;;;;;;1.53;100.00;99102.13;5033511;28;20570;-70
2021/01/16 06:20:18;;;;;;;25.33;10.57;;;;;;;1.62;100.00;99104.06;5032914;28;20226;-70
2021/01/16 06:22:49;;;;;;;28.70;11.20;;;;;;;1.62;100.00;99098.78;5031024;28;20279;-70
2021/01/16 06:25:21;;;;;;;26.30;11.03;;;;;;;1.52;100.00;99089.94;5032998;28;20235;-70
2021/01/16 06:27:50;;;;;;;24.00;10.67;;;;;;;1.39;100.00;99102.38;5032873;28;20290;-70
2021/01/16 06:30:19;;;;;;;23.60;10.17;;;;;;;1.57;100.00;99097.47;5026401;28;20208;-70
2021/01/16 06:32:50;;;;;;;24.93;10.23;;;;;;;1.48;100.00;99095.56;5028616;28;20220;-70
2021/01/16 06:35:20;;;;;;;17.53;9.70;;;;;;;1.56;100.00;99095.78;5032894;28;20226;-70
2021/01/16 06:37:48;;;;;;;22.77;10.30;;;;;;;1.37;100.00;99100.81;5029981;28;20202;-70
2021/01/16 06:40:27;;;;;;;25.83;9.30;;;;;;;1.56;100.00;99091.38;5032552;28;20226;-70
2021/01/16 06:42:56;;;;;;;25.83;9.57;;;;;;;1.51;100.00;99082.16;5030274;28;20209;-70
2021/01/16 06:45:24;;;;;;;21.17;9.57;;;;;;;1.41;100.00;99087.31;5028800;28;20227;-70
2021/01/16 06:47:56;;;;;;;24.23;10.30;;;;;;;1.61;100.00;99088.38;5040488;28;20210;-71
2021/01/16 06:50:24;;;;;;;22.87;10.47;;;;;;;1.56;100.00;99094.00;5032703;28;20186;-70
2021/01/16 06:52:50;;;;;;;23.23;10.07;;;;;;;1.59;100.00;99085.03;5030063;28;20207;-70
2021/01/16 06:55:19;;;;;;;19.60;9.20;;;;;;;1.64;100.00;99086.34;5033149;28;20249;-70
2021/01/16 06:57:46;;;;;;;26.30;10.00;;;;;;;1.61;100.00;99085.75;5032877;28;20240;-70
2021/01/16 07:00:15;;;;;;;23.93;10.20;;;;;;;1.62;100.00;99079.53;5024856;28;20218;-72
2021/01/16 07:02:46;;;;;;;24.70;9.60;;;;;;;1.66;100.00;99076.56;5032280;28;20605;-70
2021/01/16 07:05:20;;;;;;;23.60;10.10;;;;;;;1.72;100.00;99075.22;5028712;28;20728;-70
2021/01/16 07:07:51;;;;;;;21.37;10.37;;;;;;;1.71;100.00;99076.19;5031473;28;20206;-72
2021/01/16 07:10:20;;;;;;;22.83;10.00;;;;;;;1.64;100.00;99072.38;5025956;28;20214;-71
2021/01/16 07:12:48;;;;;;;22.17;10.73;;;;;;;1.58;100.00;99078.94;5030152;28;20203;-75
2021/01/16 07:15:16;;;;;;;25.20;9.27;;;;;;;1.62;100.00;99088.28;5030646;28;20218;-71
2021/01/16 07:17:43;;;;;;;24.67;10.00;;;;;;;1.59;100.00;99100.81;5028180;28;20206;-71
2021/01/16 07:20:11;;;;;;;23.70;10.33;;;;;;;1.54;100.00;99087.19;5030337;28;20261;-71
2021/01/16 07:22:41;;;;;;;25.90;11.30;;;;;;;1.51;100.00;99090.91;5031756;28;20198;-70
2021/01/16 07:25:11;;;;;;;25.67;10.23;;;;;;;1.61;100.00;99086.59;5026096;28;20230;-70
2021/01/16 07:27:38;;;;;;;21.50;10.33;;;;;;;1.68;100.00;99094.84;5031818;28;20206;-73
2021/01/16 07:30:06;;;;;;;26.07;10.60;;;;;;;1.64;100.00;99091.59;5032334;28;20202;-72
2021/01/16 07:32:38;;;;;;;23.80;9.33;;;;;;;1.63;100.00;99095.19;5028979;28;20241;-72
2021/01/16 07:35:07;;;;;;;23.17;10.30;;;;;;;1.56;100.00;99099.28;5032405;28;20356;-72
2021/01/16 07:37:34;;;;;;;22.77;10.53;;;;;;;1.64;100.00;99096.06;5031989;28;20670;-74
2021/01/16 07:40:01;;;;;;;22.53;9.90;;;;;;;1.61;100.00;99094.50;5032006;28;20229;-78
2021/01/16 07:42:31;;;;;;;25.90;10.40;;;;;;;1.64;100.00;99099.50;5035435;28;20673;-75
2021/01/16 07:45:13;;;;;;;20.13;9.37;;;;;;;1.51;100.00;99101.41;5031231;28;20320;-74
2021/01/16 07:47:41;;;;;;;26.17;10.73;;;;;;;1.59;100.00;99108.72;5030072;28;20549;-74
2021/01/16 07:50:18;;;;;;;18.83;9.37;;;;;;;1.59;100.00;99112.16;5032739;28;20655;-73
2021/01/16 07:52:54;;;;;;;26.10;10.50;;;;;;;1.72;100.00;99099.75;5021237;28;20209;-73
2021/01/16 07:55:21;;;;;;;20.73;9.60;;;;;;;1.73;100.00;99106.69;5024444;28;20229;-73
2021/01/16 07:57:50;;;;;;;22.43;10.03;;;;;;;1.64;100.00;99107.38;5031699;28;20229;-73
2021/01/16 08:00:19;;;;;;;22.63;9.57;;;;;;;1.67;100.00;99104.53;5031513;28;20257;-76
2021/01/16 08:03:13;;;;;;;22.70;8.80;;;;;;;1.66;100.00;99102.00;5032473;28;20217;-78
2021/01/16 08:05:48;;;;;;;23.90;10.53;;;;;;;1.71;100.00;99098.09;5022960;28;20234;-73
2021/01/16 08:08:44;;;;;;;20.83;9.63;;;;;;;1.74;100.00;99095.19;5029740;28;20210;-72
2021/01/16 08:11:15;;;;;;;23.80;10.47;;;;;;;1.69;100.00;99101.78;5027333;28;20601;-71
2021/01/16 08:13:45;;;;;;;22.83;10.47;;;;;;;1.60;100.00;99095.47;5028115;28;20210;-72
2021/01/16 08:16:14;;;;;;;23.70;10.37;;;;;;;1.74;100.00;99091.75;5028160;28;20301;-73
2021/01/16 08:18:47;;;;;;;21.07;10.37;;;;;;;1.80;100.00;99086.00;5025443;28;20635;-68
2021/01/16 08:21:15;;;;;;;19.77;9.80;;;;;;;1.94;100.00;99093.66;5027919;28;20721;-70
2021/01/16 08:23:48;;;;;;;20.40;8.83;;;;;;;1.88;100.00;99091.50;5026945;28;20207;-71
2021/01/16 08:26:16;;;;;;;23.57;10.80;;;;;;;1.83;100.00;99083.13;5030324;28;20317;-71
2021/01/16 08:28:45;;;;;;;20.43;9.93;;;;;;;1.66;100.00;99080.97;5025419;28;20213;-73
2021/01/16 08:31:31;;;;;;;21.10;10.00;;;;;;;1.81;100.00;99079.78;5029881;28;20228;-72
2021/01/16 08:33:58;;;;;;;22.97;10.17;;;;;;;1.84;100.00;99087.44;5021795;28;20233;-74
2021/01/16 08:36:28;;;;;;;18.63;9.47;;;;;;;1.76;100.00;99085.41;5031049;28;20223;-73
2021/01/16 08:38:55;;;;;;;20.20;9.43;;;;;;;1.89;100.00;99078.22;5030052;28;20205;-73
2021/01/16 08:41:26;;;;;;;22.40;10.53;;;;;;;1.62;100.00;99077.75;5026091;28;20720;-73
2021/01/16 08:43:55;;;;;;;21.70;10.57;;;;;;;1.62;100.00;99080.38;5029155;28;20213;-72
2021/01/16 08:46:31;;;;;;;27.43;11.17;;;;;;;1.57;100.00;99071.16;5027932;28;20717;-73
2021/01/16 08:49:00;;;;;;;25.90;10.97;;;;;;;1.95;100.00;99067.22;5026148;28;20735;-73
2021/01/16 08:51:34;;;;;;;22.90;10.27;;;;;;;2.06;100.00;99071.59;5026475;28;20198;-71
2021/01/16 08:54:15;;;;;;;24.23;10.87;;;;;;;1.77;100.00;99078.34;5029995;28;20268;-72
2021/01/16 08:56:44;;;;;;;26.87;10.80;;;;;;;1.77;100.00;99073.91;5029588;28;20230;-73
2021/01/16 08:59:23;;;;;;;29.47;11.63;;;;;;;1.64;100.00;99069.75;5033616;28;20225;-72
2021/01/16 09:01:53;;;;;;;22.13;10.17;;;;;;;1.92;100.00;99075.34;5032961;28;20669;-72
2021/01/16 09:04:24;;;;;;;21.83;10.17;;;;;;;2.21;100.00;99070.38;5031328;28;20206;-71
2021/01/16 09:06:52;;;;;;;22.40;10.63;;;;;;;1.94;100.00;99065.53;5034651;28;20875;-72
2021/01/16 09:09:25;;;;;;;22.73;10.70;;;;;;;1.99;100.00;99071.25;5035226;28;20256;-72
2021/01/16 09:12:06;;;;;;;21.13;10.37;;;;;;;1.83;100.00;99078.69;5032640;28;20210;-71
2021/01/16 09:14:34;;;;;;;24.70;11.47;;;;;;;1.75;100.00;99075.84;5031094;28;20210;-71
2021/01/16 09:17:20;;;;;;;22.27;10.80;;;;;;;2.06;100.00;99077.72;5033208;28;20210;-70
2021/01/16 09:19:54;;;;;;;23.07;10.17;;;;;;;1.78;100.00;99082.66;5033505;28;20275;-72
2021/01/16 09:22:23;;;;;;;22.83;10.10;;;;;;;1.97;100.00;99090.75;5031866;28;20198;-72
2021/01/16 09:24:50;;;;;;;19.67;9.40;;;;;;;2.03;100.00;99087.66;5031613;28;20230;-71
2021/01/16 09:27:30;;;;;;;17.93;9.10;;;;;;;2.32;100.00;99094.06;5031152;28;20613;-72
2021/01/16 09:29:57;;;;;;;19.93;9.47;;;;;;;2.30;100.00;99096.81;5032336;28;20293;-73
2021/01/16 09:32:33;;;;;;;17.77;9.23;;;;;;;2.56;100.00;99097.34;5033852;28;20214;-72
2021/01/16 09:35:00;;;;;;;20.90;8.87;;;;;;;2.53;100.00;99094.97;5031566;28;20233;-71
2021/01/16 09:37:29;;;;;;;18.40;8.30;;;;;;;2.45;100.00;99102.66;5033541;28;20202;-72
2021/01/16 09:40:05;;;;;;;20.20;8.90;;;;;;;2.49;100.00;99099.66;5031780;28;20268;-73
2021/01/16 09:42:32;;;;;;;17.13;8.33;;;;;;;2.34;100.00;99102.69;5032199;28;20202;-72
2021/01/16 09:45:00;;;;;;;19.07;8.23;;;;;;;2.44;100.00;99101.00;5031714;28;20572;-73
2021/01/16 09:48:00;;;;;;;16.73;8.60;;;;;;;2.24;100.00;99097.31;5032511;28;20206;-72
2021/01/16 09:50:28;;;;;;;15.77;7.73;;;;;;;2.41;100.00;99099.44;4946737;29;20205;-71
2021/01/16 09:52:57;;;;;;;17.53;7.60;;;;;;;2.34;100.00;99086.88;4953316;29;20741;-72
2021/01/16 09:55:31;;;;;;;17.27;8.43;;;;;;;2.42;100.00;99087.09;4990188;28;20703;-72
2021/01/16 09:57:58;;;;;;;13.67;7.27;;;;;;;2.60;100.00;99091.69;5032837;28;20205;-73
2021/01/16 10:00:31;;;;;;;17.37;7.57;;;;;;;2.53;100.00;99089.69;5033414;28;20230;-73
2021/01/16 10:02:59;;;;;;;16.23;7.37;;;;;;;2.63;100.00;99088.81;5032404;28;20203;-73
2021/01/16 10:05:32;;;;;;;12.73;6.80;;;;;;;2.57;100.00;99084.06;5031787;28;20222;-74
2021/01/16 10:07:59;;;;;;;14.77;6.77;;;;;;;2.77;100.00;99082.41;5028168;28;20663;-72
2021/01/16 10:10:26;;;;;;;15.43;7.37;;;;;;;2.60;100.00;99075.88;5035033;28;20203;-72
2021/01/16 10:13:00;;;;;;;13.23;8.07;;;;;;;2.84;100.00;99073.06;5032712;28;20289;-71
2021/01/16 10:15:33;;;;;;;12.87;6.77;;;;;;;2.94;100.00;99066.88;5030326;28;20305;-72
2021/01/16 10:18:00;;;;;;;15.63;7.33;;;;;;;2.84;100.00;99059.88;5031529;28;20210;-72
2021/01/16 10:20:34;;;;;;;15.00;7.40;;;;;;;2.53;100.00;99056.28;5028132;28;20225;-73
2021/01/16 10:23:05;;;;;;;16.67;7.60;;;;;;;2.40;100.00;99052.16;5032406;28;20217;-74
2021/01/16 10:25:40;;;;;;;13.40;6.10;;;;;;;3.08;100.00;99036.72;5032674;28;20762;-71
2021/01/16 10:28:07;;;;;;;13.03;6.93;;;;;;;3.42;100.00;99032.91;5032392;28;20199;-72
2021/01/16 10:30:35;;;;;;;13.50;6.47;;;;;;;3.20;100.00;99035.69;5032575;28;20195;-72
2021/01/16 10:33:01;;;;;;;13.93;6.77;;;;;;;2.56;100.00;99029.69;5031848;28;20202;-71
2021/01/16 10:35:30;;;;;;;12.40;6.20;;;;;;;3.10;98.71;99025.06;5032082;28;20234;-71
2021/01/16 10:37:58;;;;;;;14.60;6.80;;;;;;;2.62;100.00;99018.66;5032201;28;20207;-72
2021/01/16 10:40:25;;;;;;;12.27;6.37;;;;;;;2.52;100.00;99011.63;5032379;28;20232;-74
2021/01/16 10:42:53;;;;;;;14.73;6.40;;;;;;;3.18;100.00;99012.09;5033010;28;20214;-70
2021/01/16 10:45:22;;;;;;;12.00;6.40;;;;;;;3.58;96.55;99014.78;5031589;28;20222;-70
2021/01/16 10:47:51;;;;;;;13.40;6.23;;;;;;;3.44;98.68;98999.28;5029549;28;20262;-70
2021/01/16 10:50:23;;;;;;;9.90;5.77;;;;;;;3.42;95.74;99002.09;5032479;28;20281;-71
2021/01/16 10:53:01;;;;;;;9.77;5.07;;;;;;;3.75;93.42;98987.72;5032305;28;20210;-72
2021/01/16 10:55:50;;;;;;;8.03;4.73;;;;;;;3.65;90.69;98985.06;5032123;28;20230;-72
2021/01/16 10:58:21;;;;;;;10.57;5.47;;;;;;;3.73;91.44;98987.91;5026401;28;20209;-72
2021/01/16 11:00:54;;;;;;;9.57;5.10;;;;;;;3.77;90.40;98984.00;5025193;28;20235;-70
2021/01/16 11:03:24;;;;;;;9.47;4.77;;;;;;;3.42;88.06;98988.03;5032634;28;20251;-71
2021/01/16 11:05:57;;;;;;;9.00;4.63;;;;;;;3.47;90.08;98975.28;5030187;28;20654;-69
2021/01/16 11:08:28;;;;;;;9.60;5.20;;;;;;;3.17;91.74;98978.78;5030338;28;20667;-69
2021/01/16 11:10:56;;;;;;;7.90;4.10;;;;;;;3.34;85.53;98985.22;5035239;28;20214;-70
2021/01/16 11:13:25;;;;;;;9.13;4.93;;;;;;;3.06;88.12;98981.47;5022704;28;20202;-72
2021/01/16 11:15:56;;;;;;;8.83;4.70;;;;;;;3.36;85.23;98983.31;5025467;28;20226;-73
2021/01/16 11:18:31;;;;;;;8.63;4.47;;;;;;;3.29;87.93;98975.06;5028924;28;20686;-72
2021/01/16 11:21:03;;;;;;;8.97;4.30;;;;;;;3.29;81.30;98988.25;5031908;28;20325;-72
2021/01/16 11:23:33;;;;;;;7.37;4.43;;;;;;;3.31;83.03;98972.31;5024194;28;20210;-72
2021/01/16 11:26:07;;;;;;;9.30;4.60;;;;;;;2.89;87.87;98970.72;5032899;28;20241;-73
2021/01/16 11:28:48;;;;;;;16.83;8.67;;;;;;;2.51;100.00;98962.53;5031784;28;20202;-72
2021/01/16 11:31:30;;;;;;;16.80;8.23;;;;;;;2.67;100.00;98961.13;5048928;23;20233;-71
2021/01/16 11:34:21;;;;;;;12.90;7.23;;;;;;;2.82;100.00;98954.56;5028596;28;20212;-71
2021/01/16 11:37:00;;;;;;;15.30;7.23;;;;;;;2.89;100.00;98945.16;5031896;28;20263;-71